Time;durP1;ratioP1;P1;durP2;ratioP2;P2;SDS_P1;SDS_P2;PMS_P1;PMS_P2;Temp;Humidity;BMP_temperature;BMP_pressure;BME280_temperature;BME280_humidity;BME280_pressure;Samples;Min_cycle;Max_cycle;Signal;HPM_P1;HPM_P2
2022/11/29 00:04:35;;;;;;;31.4;17.9;;;;;;;-2.5;90.8;99220;;;;
2022/11/29 00:14:35;;;;;;;31.4;17.9;;;;;;;-2.6;90.7;99220;;;;
2022/11/29 00:25:36;;;;;;;31.7;18.8;;;;;;;-2.7;90.7;99220;;;;
2022/11/29 00:35:35;;;;;;;31.7;18.8;;;;;;;-2.7;90.5;99200;;;;
2022/11/29 00:46:35;;;;;;;31.7;18.8;;;;;;;-2.7;90.4;99200;;;;
2022/11/29 00:56:35;;;;;;;29.8;19.4;;;;;;;-2.8;90;99200;;;;
2022/11/29 01:07:36;;;;;;;29.8;19.4;;;;;;;-3;89.6;99200;;;;
2022/11/29 01:18:36;;;;;;;29.8;19.4;;;;;;;-3.2;89.1;99190;;;;
2022/11/29 01:29:36;;;;;;;31.8;17.6;;;;;;;-3.3;88.7;99190;;;;
2022/11/29 01:39:36;;;;;;;31.8;17.6;;;;;;;-3.5;88.5;99190;;;;
2022/11/29 01:50:36;;;;;;;26.6;18.5;;;;;;;-3.6;88.2;99190;;;;
2022/11/29 02:00:36;;;;;;;26.6;18.5;;;;;;;-3.7;88.1;99180;;;;
2022/11/29 02:11:36;;;;;;;26.6;18.5;;;;;;;-3.7;88.1;99190;;;;
2022/11/29 02:22:36;;;;;;;27.3;16.4;;;;;;;-3.6;88.3;99190;;;;
2022/11/29 02:32:36;;;;;;;27.3;16.4;;;;;;;-3.5;88.6;99190;;;;
2022/11/29 02:43:35;;;;;;;27.3;16.4;;;;;;;-3.4;88.8;99200;;;;
2022/11/29 02:54:36;;;;;;;34.2;18.4;;;;;;;-3.1;89;99200;;;;
2022/11/29 03:05:36;;;;;;;34.2;18.4;;;;;;;-2.8;89.5;99210;;;;
2022/11/29 03:15:36;;;;;;;34.2;18.4;;;;;;;-2.5;90;99220;;;;
2022/11/29 03:26:35;;;;;;;27.5;16.4;;;;;;;-2.3;90.7;99230;;;;
2022/11/29 03:36:36;;;;;;;27.5;16.4;;;;;;;-2.1;91;99230;;;;
2022/11/29 03:46:36;;;;;;;27.5;16.4;;;;;;;-2.2;91.2;99230;;;;
2022/11/29 03:57:36;;;;;;;29.4;15.5;;;;;;;-2.3;91.5;99240;;;;
2022/11/29 04:07:36;;;;;;;29.4;15.5;;;;;;;-2.3;91.8;99250;;;;
2022/11/29 04:18:35;;;;;;;29.4;15.5;;;;;;;-2.4;91.6;99250;;;;
2022/11/29 04:29:36;;;;;;;31.7;18;;;;;;;-2.1;91.5;99260;;;;
2022/11/29 04:40:36;;;;;;;31.7;18;;;;;;;-2.2;91.5;99260;;;;
2022/11/29 04:50:35;;;;;;;20.3;12.6;;;;;;;-2.3;91.8;99280;;;;
2022/11/29 05:00:36;;;;;;;20.3;12.6;;;;;;;-2.4;92;99290;;;;
2022/11/29 05:11:36;;;;;;;20.3;12.6;;;;;;;-2.2;91.9;99310;;;;
2022/11/29 05:21:36;;;;;;;22.3;13.7;;;;;;;-2.3;92;99310;;;;
2022/11/29 05:32:36;;;;;;;22.3;13.7;;;;;;;-2.3;92.8;99320;;;;
2022/11/29 05:43:36;;;;;;;22.3;13.7;;;;;;;-2.1;92.5;99330;;;;
2022/11/29 05:53:36;;;;;;;23.5;12.8;;;;;;;-2;92.5;99340;;;;
2022/11/29 06:03:36;;;;;;;23.5;12.8;;;;;;;-2.1;92.6;99350;;;;
2022/11/29 06:13:36;;;;;;;23.5;12.8;;;;;;;-2;92.4;99360;;;;
2022/11/29 06:23:36;;;;;;;29.1;16.9;;;;;;;-1.9;92.3;99370;;;;
2022/11/29 06:33:36;;;;;;;29.1;16.9;;;;;;;-1.7;92.2;99370;;;;
2022/11/29 06:44:36;;;;;;;29.1;16.9;;;;;;;-1.8;91.9;99380;;;;
2022/11/29 06:54:36;;;;;;;27.4;14.9;;;;;;;-1.7;91.8;99390;;;;
2022/11/29 07:05:36;;;;;;;27.4;14.9;;;;;;;-1.5;91.5;99400;;;;
2022/11/29 07:15:36;;;;;;;27.4;14.9;;;;;;;-1.5;91.1;99400;;;;
2022/11/29 07:26:36;;;;;;;25.5;13.3;;;;;;;-1.8;91.1;99410;;;;
2022/11/29 07:36:36;;;;;;;25.5;13.3;;;;;;;-1.5;91.2;99410;;;;
2022/11/29 07:47:36;;;;;;;25.5;13.3;;;;;;;-1.4;91.2;99420;;;;
2022/11/29 07:58:36;;;;;;;24.7;13.1;;;;;;;-1.3;91.1;99430;;;;
2022/11/29 08:08:36;;;;;;;24.7;13.1;;;;;;;-1.3;91.5;99430;;;;
2022/11/29 08:19:36;;;;;;;33.6;18.2;;;;;;;-1.3;91.7;99430;;;;
2022/11/29 08:30:36;;;;;;;33.6;18.2;;;;;;;-1;91.5;99440;;;;
2022/11/29 08:40:36;;;;;;;33.6;18.2;;;;;;;-0.7;91.2;99450;;;;
2022/11/29 08:50:36;;;;;;;38.1;22.2;;;;;;;-0.8;90.6;99460;;;;
2022/11/29 09:01:36;;;;;;;38.1;22.2;;;;;;;-0.6;90.2;99450;;;;
2022/11/29 09:12:36;;;;;;;38.1;22.2;;;;;;;-0.4;89.9;99450;;;;
2022/11/29 09:22:36;;;;;;;31.5;18.5;;;;;;;-0.4;90.2;99450;;;;
2022/11/29 09:32:36;;;;;;;31.5;18.5;;;;;;;-0.2;89.7;99440;;;;
2022/11/29 09:42:36;;;;;;;31.5;18.5;;;;;;;-0.1;89.4;99450;;;;
2022/11/29 09:52:36;;;;;;;33.2;17.8;;;;;;;0;89.8;99450;;;;
2022/11/29 10:02:36;;;;;;;33.2;17.8;;;;;;;-0.1;89.5;99450;;;;
2022/11/29 10:13:38;;;;;;;33.2;17.8;;;;;;;0;89.5;99450;;;;
2022/11/29 10:24:36;;;;;;;33.6;16.7;;;;;;;0.3;89.2;99440;;;;
2022/11/29 10:34:36;;;;;;;33.6;16.7;;;;;;;0.3;88.5;99430;;;;
2022/11/29 10:45:37;;;;;;;33.6;16.7;;;;;;;0.5;88.4;99430;;;;
2022/11/29 10:56:37;;;;;;;27.4;15.4;;;;;;;0.6;87.7;99420;;;;
2022/11/29 11:06:36;;;;;;;27.4;15.4;;;;;;;0.5;87.5;99410;;;;
2022/11/29 11:17:38;;;;;;;29.3;16.3;;;;;;;0.3;88.5;99410;;;;
2022/11/29 11:28:36;;;;;;;29.3;16.3;;;;;;;0.5;89;99410;;;;
2022/11/29 11:39:36;;;;;;;29.3;16.3;;;;;;;0.9;88.6;99420;;;;
2022/11/29 11:49:36;;;;;;;31.3;16.7;;;;;;;1;88.3;99430;;;;
2022/11/29 12:00:36;;;;;;;31.3;16.7;;;;;;;0.6;88.4;99430;;;;
2022/11/29 12:10:36;;;;;;;31.3;16.7;;;;;;;0.3;88.6;99420;;;;
2022/11/29 12:20:36;;;;;;;30.9;19.3;;;;;;;0.5;89;99430;;;;
2022/11/29 12:30:36;;;;;;;30.9;19.3;;;;;;;0.5;88.4;99420;;;;
2022/11/29 12:40:36;;;;;;;30.9;19.3;;;;;;;0.3;88.8;99430;;;;
2022/11/29 12:50:36;;;;;;;34.8;18.9;;;;;;;0.5;88.6;99430;;;;
2022/11/29 13:00:36;;;;;;;34.8;18.9;;;;;;;0.2;88.4;99440;;;;
2022/11/29 13:11:36;;;;;;;34.8;18.9;;;;;;;0;88.3;99440;;;;
2022/11/29 13:21:36;;;;;;;27;15.1;;;;;;;-0.2;89.5;99460;;;;
2022/11/29 13:31:36;;;;;;;27;15.1;;;;;;;-0.2;89.9;99470;;;;
2022/11/29 13:42:36;;;;;;;27;15.1;;;;;;;-0.1;89.8;99470;;;;
2022/11/29 13:53:36;;;;;;;25.6;15.1;;;;;;;-0.3;90;99480;;;;
2022/11/29 14:04:36;;;;;;;25.6;15.1;;;;;;;-0.3;90;99480;;;;
2022/11/29 14:14:36;;;;;;;25.6;15.1;;;;;;;-0.4;90.4;99490;;;;
2022/11/29 14:25:36;;;;;;;26;16.2;;;;;;;-0.8;91.3;99500;;;;
2022/11/29 14:36:36;;;;;;;26;16.2;;;;;;;-0.7;91.5;99500;;;;
2022/11/29 14:46:36;;;;;;;26;16.2;;;;;;;-1.1;92.4;99500;;;;
2022/11/29 14:57:36;;;;;;;28.5;15.2;;;;;;;-0.9;92.5;99510;;;;
2022/11/29 15:08:36;;;;;;;28.5;15.2;;;;;;;-0.8;92.4;99510;;;;
2022/11/29 15:18:36;;;;;;;26.7;15.4;;;;;;;-0.8;92.6;99510;;;;
2022/11/29 15:28:36;;;;;;;26.7;15.4;;;;;;;-0.7;92.9;99520;;;;
2022/11/29 15:39:36;;;;;;;26.7;15.4;;;;;;;-0.7;92.9;99510;;;;
2022/11/29 15:50:36;;;;;;;30;20.2;;;;;;;-0.6;93;99520;;;;
2022/11/29 16:00:36;;;;;;;30;20.2;;;;;;;-0.6;93.2;99530;;;;
2022/11/29 16:10:36;;;;;;;30;20.2;;;;;;;-0.5;93.3;99530;;;;
2022/11/29 16:20:36;;;;;;;36.3;20.6;;;;;;;-0.5;93.3;99530;;;;
2022/11/29 16:31:36;;;;;;;36.3;20.6;;;;;;;-0.4;93.4;99530;;;;
2022/11/29 16:42:36;;;;;;;36.3;20.6;;;;;;;-0.3;93.2;99550;;;;
2022/11/29 16:52:36;;;;;;;36.4;20.7;;;;;;;-0.2;93.1;99560;;;;
2022/11/29 17:02:36;;;;;;;36.4;20.7;;;;;;;-0.2;93.1;99570;;;;
2022/11/29 17:12:36;;;;;;;36.4;20.7;;;;;;;-0.1;93.3;99570;;;;
2022/11/29 17:22:36;;;;;;;33.9;18.9;;;;;;;0;93.2;99570;;;;
2022/11/29 17:32:36;;;;;;;33.9;18.9;;;;;;;0.1;93.1;99560;;;;
2022/11/29 17:43:36;;;;;;;33.9;18.9;;;;;;;0.2;93.1;99570;;;;
2022/11/29 17:54:36;;;;;;;35.1;17.4;;;;;;;0.2;93;99580;;;;
2022/11/29 18:04:36;;;;;;;35.1;17.4;;;;;;;0.2;92.9;99570;;;;
2022/11/29 18:15:36;;;;;;;35.1;17.4;;;;;;;-0.1;93.4;99570;;;;
2022/11/29 18:25:36;;;;;;;35.7;18.9;;;;;;;0;93.5;99570;;;;
2022/11/29 18:35:36;;;;;;;35.7;18.9;;;;;;;0.1;93.3;99590;;;;
2022/11/29 18:45:36;;;;;;;35.7;18.9;;;;;;;0.1;93.2;99580;;;;
2022/11/29 18:56:36;;;;;;;33.7;17.5;;;;;;;0.1;93.2;99580;;;;
2022/11/29 19:07:36;;;;;;;33.7;17.5;;;;;;;0.2;93;99590;;;;
2022/11/29 19:17:36;;;;;;;32;20.3;;;;;;;0.2;92.9;99590;;;;
2022/11/29 19:27:36;;;;;;;32;20.3;;;;;;;0.2;92.8;99590;;;;
2022/11/29 19:38:36;;;;;;;32;20.3;;;;;;;0.1;92.7;99600;;;;
2022/11/29 19:48:36;;;;;;;38.8;23.2;;;;;;;0.2;92.6;99600;;;;
2022/11/29 19:59:36;;;;;;;38.8;23.2;;;;;;;0.2;92.5;99600;;;;
2022/11/29 20:10:36;;;;;;;38.8;23.2;;;;;;;0.1;92.5;99610;;;;
2022/11/29 20:20:36;;;;;;;39.8;22;;;;;;;0;92.5;99610;;;;
2022/11/29 20:31:36;;;;;;;39.8;22;;;;;;;0.1;92.5;99620;;;;
2022/11/29 20:41:36;;;;;;;39.8;22;;;;;;;0.2;92.5;99610;;;;
2022/11/29 20:51:36;;;;;;;34.8;20.6;;;;;;;0.3;92.3;99620;;;;
2022/11/29 21:02:36;;;;;;;34.8;20.6;;;;;;;0.2;92.3;99630;;;;
2022/11/29 21:12:37;;;;;;;34.8;20.6;;;;;;;0.2;92.2;99640;;;;
2022/11/29 21:23:36;;;;;;;45.2;23.6;;;;;;;0.2;92.4;99630;;;;
2022/11/29 21:34:36;;;;;;;45.2;23.6;;;;;;;0.4;92.3;99630;;;;
2022/11/29 21:44:36;;;;;;;45.2;23.6;;;;;;;0.2;92.3;99650;;;;
2022/11/29 21:55:36;;;;;;;50.3;26;;;;;;;0.4;92.2;99640;;;;
2022/11/29 22:05:36;;;;;;;50.3;26;;;;;;;0.4;92;99630;;;;
2022/11/29 22:15:36;;;;;;;42.7;23.8;;;;;;;0.4;91.8;99630;;;;
2022/11/29 22:26:36;;;;;;;42.7;23.8;;;;;;;0.4;91.9;99630;;;;
2022/11/29 22:36:36;;;;;;;42.7;23.8;;;;;;;0.3;91.9;99630;;;;
2022/11/29 22:47:36;;;;;;;52;24.6;;;;;;;0.2;91.8;99630;;;;
2022/11/29 22:57:36;;;;;;;52;24.6;;;;;;;0.3;91.7;99630;;;;
2022/11/29 23:08:36;;;;;;;52;24.6;;;;;;;0.1;91.5;99630;;;;
2022/11/29 23:18:37;;;;;;;41.7;21.5;;;;;;;0.1;91.6;99640;;;;
2022/11/29 23:29:36;;;;;;;41.7;21.5;;;;;;;0.1;91.4;99640;;;;
2022/11/29 23:40:36;;;;;;;41.7;21.5;;;;;;;0;91.4;99630;;;;
2022/11/29 23:51:36;;;;;;;41.4;20.8;;;;;;;0;91.2;99640;;;;
